Time;durP1;ratioP1;P1;durP2;ratioP2;P2;SDS_P1;SDS_P2;PMS_P1;PMS_P2;Temp;Humidity;BMP_temperature;BMP_pressure;BME280_temperature;BME280_humidity;BME280_pressure;Samples;Min_cycle;Max_cycle;Signal;HPM_P1;HPM_P2
2022/09/08 00:00:57;;;;;;;24.92;16.58;;;22.50;90.40;;;;;;4977334;28;20371;-67
2022/09/08 00:03:27;;;;;;;21.15;15.90;;;22.50;90.40;;;;;;4977580;28;20050;-67
2022/09/08 00:06:04;;;;;;;19.85;14.27;;;22.50;90.40;;;;;;4976231;28;20057;-67
2022/09/08 00:08:30;;;;;;;20.60;13.73;;;22.50;90.30;;;;;;4966743;28;20065;-67
2022/09/08 00:10:59;;;;;;;20.05;14.68;;;22.50;90.30;;;;;;4977083;28;20098;-67
2022/09/08 00:13:26;;;;;;;17.90;13.30;;;22.50;90.30;;;;;;4978213;28;20378;-67
2022/09/08 00:15:54;;;;;;;20.08;14.32;;;22.40;90.20;;;;;;4979055;28;20031;-67
2022/09/08 00:18:20;;;;;;;28.83;19.10;;;22.40;90.20;;;;;;4977592;28;20508;-67
2022/09/08 00:20:46;;;;;;;26.38;19.17;;;22.40;90.20;;;;;;4978228;28;20026;-67
2022/09/08 00:23:12;;;;;;;29.13;18.33;;;22.30;90.10;;;;;;4976128;28;20042;-67
2022/09/08 00:25:37;;;;;;;16.35;12.15;;;22.30;90.10;;;;;;4980679;28;20026;-67
2022/09/08 00:28:03;;;;;;;16.77;11.73;;;22.30;90.00;;;;;;4980070;28;20077;-68
2022/09/08 00:30:31;;;;;;;16.60;12.13;;;22.30;90.00;;;;;;4978119;28;20038;-67
2022/09/08 00:32:57;;;;;;;21.08;13.80;;;22.30;90.00;;;;;;4978248;28;20034;-67
2022/09/08 00:35:23;;;;;;;18.63;13.93;;;22.30;90.00;;;;;;4974294;28;20085;-67
2022/09/08 00:37:52;;;;;;;23.70;15.70;;;22.20;90.00;;;;;;4979781;28;20034;-67
2022/09/08 00:40:19;;;;;;;28.55;19.13;;;22.20;90.10;;;;;;4979351;28;20038;-67
2022/09/08 00:42:56;;;;;;;28.23;18.88;;;22.20;90.20;;;;;;4975321;28;20093;-67
2022/09/08 00:45:23;;;;;;;31.00;20.15;;;22.20;90.30;;;;;;4969780;28;20030;-67
2022/09/08 00:47:58;;;;;;;30.70;22.35;;;22.20;90.40;;;;;;4979897;28;20043;-68
2022/09/08 00:50:27;;;;;;;28.42;21.13;;;22.10;90.50;;;;;;4980456;28;20084;-67
2022/09/08 00:53:00;;;;;;;30.70;22.88;;;22.10;90.60;;;;;;4981503;28;20027;-67
2022/09/08 00:55:28;;;;;;;30.65;22.42;;;22.10;90.60;;;;;;4981125;28;20027;-67
2022/09/08 00:57:54;;;;;;;30.95;22.42;;;22.00;90.60;;;;;;4983485;28;20041;-67
2022/09/08 01:00:20;;;;;;;35.08;23.23;;;22.00;90.70;;;;;;4980212;28;20027;-67
2022/09/08 01:02:46;;;;;;;31.15;22.77;;;22.00;90.70;;;;;;4981975;28;20037;-67
2022/09/08 01:05:19;;;;;;;36.67;24.48;;;22.00;90.70;;;;;;4972610;28;20042;-67
2022/09/08 01:14:13;;;;;;;31.15;22.95;;;22.00;90.80;;;;;;4896609;29;20040;-67
2022/09/08 01:16:42;;;;;;;32.70;24.20;;;22.00;90.80;;;;;;4895355;29;20048;-67
2022/09/08 01:19:33;;;;;;;33.38;23.58;;;21.90;90.90;;;;;;4930460;28;20030;-67
2022/09/08 01:22:37;;;;;;;33.92;23.85;;;21.90;90.90;;;;;;4974997;28;20053;-67
2022/09/08 01:25:08;;;;;;;32.30;21.77;;;21.90;90.90;;;;;;4974929;28;20030;-67
2022/09/08 01:27:38;;;;;;;36.60;24.33;;;21.90;90.90;;;;;;4974702;28;20034;-67
2022/09/08 01:30:07;;;;;;;38.33;25.50;;;21.90;91.00;;;;;;4975170;28;20171;-67
2022/09/08 01:32:35;;;;;;;35.28;23.83;;;21.90;91.00;;;;;;4974489;28;20041;-67
2022/09/08 01:35:04;;;;;;;39.03;25.73;;;21.90;91.10;;;;;;4974774;28;20474;-67
2022/09/08 01:37:30;;;;;;;35.53;24.80;;;21.80;91.10;;;;;;4974254;28;20466;-68
2022/09/08 01:39:57;;;;;;;39.95;24.42;;;21.80;91.10;;;;;;4973849;28;20038;-68
2022/09/08 01:42:24;;;;;;;37.35;26.00;;;21.90;91.10;;;;;;4984129;28;20429;-67
2022/09/08 01:44:49;;;;;;;36.00;24.98;;;21.80;91.10;;;;;;4985915;28;20041;-67
2022/09/08 01:47:15;;;;;;;36.67;26.13;;;21.80;91.00;;;;;;4974467;28;20039;-67
2022/09/08 01:49:41;;;;;;;40.28;27.40;;;21.80;91.00;;;;;;4990212;28;20026;-67
2022/09/08 01:52:07;;;;;;;36.70;26.20;;;21.80;91.00;;;;;;4991488;28;20042;-67
2022/09/08 01:54:34;;;;;;;40.53;28.17;;;21.80;91.00;;;;;;4992798;28;20037;-67
2022/09/08 01:56:59;;;;;;;38.53;27.38;;;21.80;91.00;;;;;;4982305;28;20622;-67
2022/09/08 01:59:28;;;;;;;43.40;28.60;;;21.80;91.00;;;;;;4978831;28;20117;-67
2022/09/08 02:01:54;;;;;;;38.72;27.27;;;21.70;91.00;;;;;;4981951;28;20117;-67
2022/09/08 02:04:20;;;;;;;38.80;26.27;;;21.70;91.00;;;;;;4973226;28;20047;-67
2022/09/08 02:06:46;;;;;;;37.45;25.75;;;21.70;91.00;;;;;;4973950;28;20058;-67
2022/09/08 02:09:12;;;;;;;37.75;26.13;;;21.70;91.00;;;;;;4968929;28;20168;-67
2022/09/08 02:11:38;;;;;;;35.72;25.50;;;21.70;90.90;;;;;;4967825;28;20031;-67
2022/09/08 02:14:04;;;;;;;35.30;25.55;;;21.70;90.90;;;;;;4973069;28;20030;-67
2022/09/08 02:16:30;;;;;;;34.55;24.83;;;21.70;90.90;;;;;;4974981;28;20121;-67
2022/09/08 02:18:56;;;;;;;35.97;25.10;;;21.70;90.90;;;;;;4986598;28;20030;-67
2022/09/08 02:21:27;;;;;;;34.58;25.05;;;21.70;91.00;;;;;;4983898;28;20062;-67
2022/09/08 02:23:53;;;;;;;33.75;23.40;;;21.70;90.90;;;;;;4986705;28;20405;-67
2022/09/08 02:26:20;;;;;;;33.47;24.77;;;21.60;90.90;;;;;;4974199;28;20042;-67
2022/09/08 02:28:46;;;;;;;38.22;24.13;;;21.60;90.90;;;;;;4987373;28;20102;-67
2022/09/08 02:31:13;;;;;;;35.60;25.33;;;21.70;90.90;;;;;;4974367;28;20463;-67
2022/09/08 02:33:40;;;;;;;38.20;24.20;;;21.60;90.90;;;;;;4988631;28;20129;-67
2022/09/08 02:36:06;;;;;;;33.70;24.98;;;21.60;90.90;;;;;;4979692;28;20442;-67
2022/09/08 02:38:31;;;;;;;33.97;23.65;;;21.60;90.90;;;;;;4990257;28;20029;-67
2022/09/08 02:40:57;;;;;;;34.88;25.05;;;21.60;90.90;;;;;;4990203;28;20398;-67
2022/09/08 02:43:26;;;;;;;37.08;26.95;;;21.60;90.90;;;;;;4973599;28;20050;-67
2022/09/08 02:45:52;;;;;;;41.42;26.80;;;21.60;90.90;;;;;;4985772;28;20165;-67
2022/09/08 02:48:18;;;;;;;36.17;25.50;;;21.60;90.90;;;;;;4985487;28;20118;-67
2022/09/08 02:50:44;;;;;;;66.30;28.13;;;21.50;90.90;;;;;;4973491;28;20034;-67
2022/09/08 02:53:10;;;;;;;41.47;28.35;;;21.50;91.00;;;;;;4973362;28;20042;-67
2022/09/08 02:55:37;;;;;;;39.55;28.73;;;21.50;91.00;;;;;;4973073;28;20034;-67
2022/09/08 02:58:03;;;;;;;46.50;29.38;;;21.60;91.10;;;;;;4991251;28;20035;-67
2022/09/08 03:00:32;;;;;;;40.90;28.42;;;21.50;91.10;;;;;;4992731;28;20041;-67
2022/09/08 03:02:58;;;;;;;41.55;29.10;;;21.60;91.10;;;;;;4967043;28;20413;-67
2022/09/08 03:05:24;;;;;;;41.35;29.65;;;21.60;91.20;;;;;;4978929;28;20027;-67
2022/09/08 03:07:50;;;;;;;42.30;28.95;;;21.50;91.20;;;;;;4980442;28;20153;-67
2022/09/08 03:10:23;;;;;;;45.28;30.98;;;21.50;91.20;;;;;;4977857;28;20461;-67
2022/09/08 03:12:52;;;;;;;43.78;30.73;;;21.50;91.30;;;;;;4981924;28;20049;-67
2022/09/08 03:15:19;;;;;;;47.22;30.95;;;21.50;91.30;;;;;;4976666;28;20039;-67
2022/09/08 03:17:45;;;;;;;44.78;30.27;;;21.50;91.30;;;;;;4973264;28;20035;-67
2022/09/08 03:20:14;;;;;;;44.75;30.13;;;21.50;91.40;;;;;;4972588;28;20031;-67
2022/09/08 03:22:40;;;;;;;45.28;31.25;;;21.50;91.40;;;;;;4972809;28;20050;-67
2022/09/08 03:25:06;;;;;;;41.65;30.15;;;21.50;91.50;;;;;;4971974;28;20127;-67
2022/09/08 03:27:32;;;;;;;46.65;31.50;;;21.50;91.60;;;;;;4973871;28;20038;-68
2022/09/08 03:29:57;;;;;;;43.13;29.52;;;21.50;91.60;;;;;;4974399;28;20066;-67
2022/09/08 03:32:23;;;;;;;43.20;31.65;;;21.50;91.60;;;;;;4972590;28;20042;-67
2022/09/08 03:34:48;;;;;;;45.33;30.73;;;21.50;91.60;;;;;;4973382;28;20429;-67
2022/09/08 03:37:14;;;;;;;48.58;33.03;;;21.50;91.70;;;;;;4973364;28;20472;-68
2022/09/08 03:39:40;;;;;;;62.90;37.75;;;21.50;91.70;;;;;;4975045;28;20027;-67
2022/09/08 03:42:05;;;;;;;56.65;38.50;;;21.60;91.80;;;;;;4983170;28;20117;-67
2022/09/08 03:44:32;;;;;;;67.60;43.25;;;21.50;91.80;;;;;;4989891;28;20090;-67
2022/09/08 03:46:58;;;;;;;70.07;42.25;;;21.50;91.90;;;;;;4989982;28;20390;-67
2022/09/08 03:49:24;;;;;;;62.75;40.35;;;21.50;91.90;;;;;;4977855;28;20039;-67
2022/09/08 03:51:50;;;;;;;57.17;39.33;;;21.50;91.90;;;;;;4989181;28;20026;-68
2022/09/08 03:57:00;;;;;;;58.00;37.35;;;21.60;92.00;;;;;;4986166;28;20030;-67
2022/09/08 03:59:25;;;;;;;56.65;36.70;;;21.60;92.00;;;;;;4973513;28;20075;-67
2022/09/08 04:01:53;;;;;;;58.25;37.92;;;21.50;92.00;;;;;;4993511;28;20473;-66
2022/09/08 04:04:20;;;;;;;56.97;36.97;;;21.50;92.00;;;;;;4986082;28;20037;-67
2022/09/08 04:06:46;;;;;;;55.05;36.88;;;21.50;92.10;;;;;;4986820;28;20137;-67
2022/09/08 04:09:12;;;;;;;51.15;35.38;;;21.50;92.20;;;;;;4993629;28;20105;-67
2022/09/08 04:11:37;;;;;;;56.92;37.40;;;21.50;92.20;;;;;;4988585;28;20500;-67
2022/09/08 04:14:03;;;;;;;50.55;36.08;;;21.50;92.20;;;;;;4988593;28;20023;-67
2022/09/08 04:16:31;;;;;;;52.28;35.25;;;21.50;92.20;;;;;;4983913;28;20032;-67
2022/09/08 04:18:57;;;;;;;49.25;35.00;;;21.60;92.30;;;;;;4989918;28;20069;-66
2022/09/08 04:21:22;;;;;;;57.33;35.08;;;21.50;92.60;;;;;;4979480;28;20042;-67
2022/09/08 04:23:48;;;;;;;49.22;34.53;;;21.50;92.30;;;;;;4984799;28;20456;-67
2022/09/08 04:26:14;;;;;;;55.88;35.53;;;21.50;92.30;;;;;;4988012;28;20038;-67
2022/09/08 04:28:40;;;;;;;50.65;35.20;;;21.50;92.40;;;;;;4969212;28;20541;-67
2022/09/08 04:31:09;;;;;;;50.03;34.53;;;21.60;92.40;;;;;;4989867;28;20034;-68
2022/09/08 04:33:35;;;;;;;48.08;33.63;;;21.60;92.50;;;;;;4977168;28;20077;-67
2022/09/08 04:36:09;;;;;;;48.30;34.92;;;21.50;92.50;;;;;;4985576;28;20490;-67
2022/09/08 04:38:35;;;;;;;53.40;33.47;;;21.50;92.60;;;;;;4983130;28;20069;-68
2022/09/08 04:41:19;;;;;;;50.78;35.03;;;21.50;92.60;;;;;;4979303;28;20058;-67
2022/09/08 04:43:44;;;;;;;46.53;35.08;;;21.60;92.70;;;;;;4994342;28;20140;-68
2022/09/08 04:46:15;;;;;;;51.70;35.50;;;21.50;92.80;;;;;;4988878;28;20514;-67
2022/09/08 04:48:42;;;;;;;47.25;33.47;;;21.60;92.90;;;;;;4985199;28;20023;-68
2022/09/08 04:51:11;;;;;;;46.35;33.95;;;21.60;92.90;;;;;;4990655;28;20026;-67
2022/09/08 04:53:37;;;;;;;49.40;33.40;;;21.50;92.90;;;;;;4982534;28;20113;-67
2022/09/08 04:56:07;;;;;;;47.75;32.80;;;21.50;92.90;;;;;;4985618;28;20141;-66
2022/09/08 04:58:34;;;;;;;50.92;33.88;;;21.50;93.00;;;;;;4988738;28;20113;-68
2022/09/08 05:01:08;;;;;;;49.70;33.60;;;21.60;93.00;;;;;;4983593;28;20042;-67
2022/09/08 05:03:34;;;;;;;47.47;33.53;;;21.50;93.10;;;;;;4984074;28;20606;-67
2022/09/08 05:06:05;;;;;;;51.30;35.03;;;21.50;93.10;;;;;;4987490;28;20038;-68
2022/09/08 05:08:31;;;;;;;46.90;33.78;;;21.50;93.20;;;;;;4988335;28;20038;-68
2022/09/08 05:10:58;;;;;;;55.50;34.35;;;21.60;93.20;;;;;;4990013;28;20113;-67
2022/09/08 05:13:24;;;;;;;49.80;34.75;;;21.50;93.20;;;;;;4993888;28;20064;-68
2022/09/08 05:15:49;;;;;;;52.15;35.10;;;21.50;93.30;;;;;;4985555;28;20435;-68
2022/09/08 05:18:15;;;;;;;51.92;35.42;;;21.50;93.30;;;;;;4985731;28;20397;-68
2022/09/08 05:20:40;;;;;;;48.75;35.63;;;21.60;93.40;;;;;;4985371;28;20118;-67
2022/09/08 05:23:06;;;;;;;53.67;34.80;;;21.50;93.40;;;;;;4986163;28;20101;-68
2022/09/08 05:25:32;;;;;;;48.53;34.83;;;21.60;93.40;;;;;;4983350;28;20022;-67
2022/09/08 05:27:57;;;;;;;53.95;35.67;;;21.50;93.40;;;;;;4979403;28;20022;-68
2022/09/08 05:30:23;;;;;;;49.30;34.95;;;21.50;93.40;;;;;;4980699;28;20034;-67
2022/09/08 05:32:49;;;;;;;56.85;36.10;;;21.60;93.80;;;;;;4988832;28;20034;-70
2022/09/08 05:35:15;;;;;;;53.72;34.38;;;21.60;93.80;;;;;;4991596;28;20027;-67
2022/09/08 05:37:41;;;;;;;51.08;36.63;;;21.60;93.60;;;;;;4980876;28;20027;-68
2022/09/08 05:40:07;;;;;;;49.65;34.33;;;21.60;93.60;;;;;;4985618;28;20035;-67
2022/09/08 05:42:32;;;;;;;51.08;35.05;;;21.60;93.60;;;;;;4992914;28;20034;-69
2022/09/08 05:44:58;;;;;;;50.13;35.35;;;21.60;93.60;;;;;;4986613;28;20022;-69
2022/09/08 05:47:24;;;;;;;49.30;34.67;;;21.60;93.60;;;;;;4991416;28;20359;-68
2022/09/08 05:49:50;;;;;;;48.78;35.78;;;21.60;93.60;;;;;;4987911;28;20035;-68
2022/09/08 05:52:15;;;;;;;57.63;36.40;;;21.50;93.60;;;;;;4987668;28;20435;-68
2022/09/08 05:54:41;;;;;;;56.50;36.53;;;21.60;93.70;;;;;;4987166;28;20046;-68
2022/09/08 05:57:06;;;;;;;54.25;37.38;;;21.50;93.70;;;;;;4983058;28;20092;-68
2022/09/08 05:59:32;;;;;;;58.00;38.42;;;21.50;93.80;;;;;;4985243;28;20029;-69
2022/09/08 06:01:58;;;;;;;51.53;37.28;;;21.50;93.80;;;;;;4992022;28;20030;-68
2022/09/08 06:04:23;;;;;;;50.22;35.13;;;21.50;93.90;;;;;;4988788;28;20033;-68
2022/09/08 06:06:49;;;;;;;51.35;36.30;;;21.50;94.20;;;;;;4986214;28;20050;-68
2022/09/08 06:09:15;;;;;;;55.30;37.22;;;21.60;94.20;;;;;;4987963;28;20513;-68
2022/09/08 06:11:41;;;;;;;53.85;35.70;;;21.50;94.20;;;;;;4987174;28;20049;-68
2022/09/08 06:14:07;;;;;;;47.30;33.08;;;21.60;93.80;;;;;;4985688;28;20034;-68
2022/09/08 06:16:34;;;;;;;48.85;35.70;;;21.60;93.80;;;;;;4989283;28;20031;-68
2022/09/08 06:19:00;;;;;;;50.08;35.00;;;21.50;93.70;;;;;;4987547;28;20027;-68
2022/09/08 06:21:31;;;;;;;52.15;35.53;;;21.60;93.80;;;;;;4986887;28;20038;-68
2022/09/08 06:24:00;;;;;;;51.63;34.83;;;21.50;93.70;;;;;;4989266;28;20512;-68
2022/09/08 06:26:43;;;;;;;50.75;33.78;;;21.50;93.80;;;;;;4987269;28;20030;-68
2022/09/08 06:29:24;;;;;;;45.72;31.52;;;21.60;93.80;;;;;;4985862;28;20516;-68
2022/09/08 06:32:01;;;;;;;51.63;32.55;;;21.60;93.80;;;;;;4984923;28;20076;-68
2022/09/08 06:34:31;;;;;;;47.75;34.50;;;21.60;93.70;;;;;;4984687;28;20032;-68
2022/09/08 06:37:02;;;;;;;47.92;33.40;;;21.60;93.70;;;;;;4985086;28;20430;-68
2022/09/08 06:39:50;;;;;;;47.75;33.97;;;21.60;93.80;;;;;;4987019;28;20052;-69
2022/09/08 06:42:43;;;;;;;47.47;33.28;;;21.60;93.70;;;;;;4986935;28;20046;-68
2022/09/08 06:45:18;;;;;;;49.08;34.40;;;21.60;93.80;;;;;;4986287;28;20038;-67
2022/09/08 06:47:52;;;;;;;46.05;32.03;;;21.60;93.80;;;;;;4987858;28;20057;-69
2022/09/08 06:50:17;;;;;;;49.58;33.03;;;21.60;93.90;;;;;;4981636;28;20038;-69
2022/09/08 06:52:52;;;;;;;47.20;33.53;;;21.60;93.90;;;;;;4984239;28;20031;-68
2022/09/08 06:55:44;;;;;;;47.00;31.52;;;21.60;94.00;;;;;;4982416;28;20109;-68
2022/09/08 06:58:22;;;;;;;43.63;30.92;;;21.60;93.90;;;;;;4983363;28;20042;-67
2022/09/08 07:01:00;;;;;;;43.72;30.65;;;21.60;94.00;;;;;;4981898;28;20066;-68
2022/09/08 07:04:04;;;;;;;43.50;31.05;;;21.60;93.90;;;;;;4982072;28;20398;-68
2022/09/08 07:06:39;;;;;;;45.45;27.58;;;21.60;93.90;;;;;;4987361;28;20477;-68
2022/09/08 07:09:11;;;;;;;44.83;28.95;;;21.60;93.80;;;;;;4979240;28;20548;-69
2022/09/08 07:11:47;;;;;;;38.40;26.17;;;21.60;93.80;;;;;;4974016;28;20031;-68
2022/09/08 07:14:45;;;;;;;42.22;27.00;;;21.60;93.70;;;;;;4974672;28;20031;-68
2022/09/08 07:17:34;;;;;;;34.70;19.75;;;21.60;93.70;;;;;;4973508;28;20119;-69
2022/09/08 07:20:00;;;;;;;38.15;25.33;;;21.60;90.70;;;;;;4975238;28;20038;-68
2022/09/08 07:22:34;;;;;;;33.65;20.98;;;21.50;90.40;;;;;;4975983;28;20043;-67
2022/09/08 07:25:21;;;;;;;41.33;28.20;;;21.50;90.20;;;;;;4980316;28;20041;-68
2022/09/08 07:28:05;;;;;;;43.67;32.33;;;21.40;90.20;;;;;;4978857;28;20023;-68
2022/09/08 07:30:33;;;;;;;34.53;21.85;;;21.40;90.60;;;;;;4984615;28;20058;-67
2022/09/08 07:33:22;;;;;;;37.78;28.17;;;21.40;90.40;;;;;;4993048;28;20061;-67
2022/09/08 07:35:56;;;;;;;40.83;28.00;;;21.40;90.50;;;;;;4991396;28;20026;-67
2022/09/08 07:38:47;;;;;;;42.50;27.17;;;21.40;90.70;;;;;;4990706;28;20034;-67
2022/09/08 07:41:37;;;;;;;45.33;28.95;;;21.40;90.70;;;;;;4976844;28;20397;-67
2022/09/08 07:44:11;;;;;;;44.42;30.25;;;21.40;90.80;;;;;;4983705;28;20142;-68
2022/09/08 07:46:49;;;;;;;44.67;29.40;;;21.40;90.90;;;;;;4978109;28;20018;-68
2022/09/08 07:49:18;;;;;;;43.53;28.40;;;21.40;91.00;;;;;;4990925;28;20038;-68
2022/09/08 07:52:12;;;;;;;43.05;27.67;;;21.40;90.70;;;;;;4987455;28;20029;-68
2022/09/08 07:55:09;;;;;;;46.40;31.80;;;21.40;90.80;;;;;;4987937;28;20034;-68
2022/09/08 07:57:49;;;;;;;49.85;29.52;;;21.40;91.10;;;;;;4977938;28;20489;-68
2022/09/08 08:00:32;;;;;;;43.17;28.45;;;21.40;91.00;;;;;;4982228;28;20090;-68
2022/09/08 08:03:13;;;;;;;40.05;29.88;;;21.40;91.10;;;;;;4976413;28;20049;-68
2022/09/08 08:05:48;;;;;;;42.50;29.23;;;21.50;91.30;;;;;;4975506;28;20042;-68
2022/09/08 08:08:37;;;;;;;45.53;30.38;;;21.50;91.50;;;;;;4975344;28;20567;-68
2022/09/08 08:11:29;;;;;;;42.15;29.52;;;21.40;91.40;;;;;;4966787;28;20026;-68
2022/09/08 08:14:21;;;;;;;43.92;30.05;;;21.50;91.40;;;;;;4975024;28;20066;-68
2022/09/08 08:17:26;;;;;;;43.30;31.17;;;21.50;91.80;;;;;;4976370;28;20031;-68
2022/09/08 08:20:07;;;;;;;41.60;29.70;;;21.50;92.00;;;;;;4967663;28;20043;-68
2022/09/08 08:22:46;;;;;;;45.88;30.95;;;21.50;92.40;;;;;;4965739;28;20549;-68
2022/09/08 08:25:18;;;;;;;44.60;32.15;;;21.50;92.80;;;;;;4975456;28;20446;-68
2022/09/08 08:28:10;;;;;;;44.70;31.80;;;21.50;93.00;;;;;;4975057;28;20034;-68
2022/09/08 08:30:49;;;;;;;42.38;30.35;;;21.60;93.20;;;;;;4977683;28;20034;-68
2022/09/08 08:33:23;;;;;;;43.17;30.42;;;21.60;93.20;;;;;;4977619;28;20081;-69
2022/09/08 08:35:55;;;;;;;39.78;28.42;;;21.60;93.30;;;;;;4978664;28;20451;-69
2022/09/08 08:38:24;;;;;;;43.78;29.73;;;21.60;93.40;;;;;;4975015;28;20031;-69
2022/09/08 08:41:13;;;;;;;41.13;30.45;;;21.60;93.40;;;;;;4980373;28;20137;-67
2022/09/08 08:43:39;;;;;;;40.28;28.90;;;21.60;93.40;;;;;;4974536;28;20074;-67
2022/09/08 08:46:23;;;;;;;48.55;32.97;;;21.60;93.50;;;;;;4987626;28;20058;-67
2022/09/08 08:48:57;;;;;;;42.30;29.90;;;21.70;93.70;;;;;;4974629;28;20041;-67
2022/09/08 08:51:47;;;;;;;39.38;28.10;;;21.60;93.70;;;;;;4984503;28;20050;-67
2022/09/08 08:54:27;;;;;;;35.65;25.90;;;21.60;93.70;;;;;;4986937;28;20457;-67
2022/09/08 08:57:12;;;;;;;38.88;25.98;;;21.70;93.40;;;;;;4990535;28;20033;-67
2022/09/08 08:59:56;;;;;;;38.00;25.30;;;21.70;93.00;;;;;;4990312;28;20042;-67
2022/09/08 09:02:49;;;;;;;37.00;26.38;;;21.70;92.70;;;;;;4981369;28;20054;-67
2022/09/08 09:05:36;;;;;;;37.72;27.17;;;21.60;92.50;;;;;;4987066;28;20117;-67
2022/09/08 09:08:30;;;;;;;32.22;22.42;;;21.70;92.70;;;;;;4985018;28;20069;-67
2022/09/08 09:11:22;;;;;;;35.95;24.50;;;21.60;91.40;;;;;;4992421;28;20034;-68
2022/09/08 09:13:53;;;;;;;33.50;23.02;;;21.60;91.30;;;;;;4986713;28;20030;-67
2022/09/08 09:16:43;;;;;;;30.23;21.08;;;21.70;91.60;;;;;;4986767;28;20081;-67
2022/09/08 09:19:44;;;;;;;24.20;17.88;;;21.60;91.20;;;;;;4983572;28;20610;-67
2022/09/08 09:22:42;;;;;;;24.30;16.90;;;21.60;90.80;;;;;;4985089;28;20030;-68
2022/09/08 09:25:19;;;;;;;27.65;19.20;;;21.60;91.10;;;;;;4985139;28;20190;-68
2022/09/08 09:28:22;;;;;;;24.65;17.02;;;21.60;90.90;;;;;;4991561;28;20429;-69
2022/09/08 09:31:15;;;;;;;23.58;16.27;;;21.60;90.50;;;;;;4989958;28;20022;-69
2022/09/08 09:34:01;;;;;;;19.55;10.57;;;21.60;90.70;;;;;;4987707;28;20026;-68
2022/09/08 09:36:48;;;;;;;32.03;12.57;;;21.60;90.30;;;;;;4943618;28;20049;-67
2022/09/08 09:39:28;;;;;;;21.33;14.45;;;21.60;89.80;;;;;;4978638;28;20029;-68
2022/09/08 09:42:13;;;;;;;16.05;11.88;;;21.50;90.00;;;;;;4987860;28;20525;-67
2022/09/08 09:44:54;;;;;;;15.88;9.30;;;21.50;90.00;;;;;;4985664;28;20034;-67
2022/09/08 09:47:38;;;;;;;9.13;6.28;;;21.50;90.00;;;;;;4992179;28;20041;-68
2022/09/08 09:50:38;;;;;;;19.55;13.63;;;21.50;90.00;;;;;;4984611;28;20117;-67
2022/09/08 09:53:30;;;;;;;19.80;14.52;;;21.40;90.30;;;;;;4983947;28;20118;-67
2022/09/08 09:56:14;;;;;;;17.33;10.70;;;21.40;90.90;;;;;;4989722;28;20065;-68
2022/09/08 09:59:08;;;;;;;23.10;15.13;;;21.40;90.30;;;;;;4989686;28;20034;-67
2022/09/08 10:02:08;;;;;;;21.42;16.25;;;21.40;90.70;;;;;;4990978;28;20034;-67
2022/09/08 10:05:18;;;;;;;22.38;15.82;;;21.40;90.70;;;;;;4985514;28;20112;-68
2022/09/08 10:08:06;;;;;;;20.83;14.27;;;21.50;90.80;;;;;;4981144;28;20051;-68
2022/09/08 10:10:45;;;;;;;16.13;11.77;;;21.50;91.00;;;;;;4976988;28;20122;-67
2022/09/08 10:13:47;;;;;;;16.25;12.02;;;21.50;90.70;;;;;;4981775;28;20027;-68
2022/09/08 10:16:37;;;;;;;19.27;12.65;;;21.50;90.60;;;;;;4978923;28;20390;-67
2022/09/08 10:19:33;;;;;;;18.60;12.75;;;21.60;90.80;;;;;;4974195;28;20031;-67
2022/09/08 10:22:23;;;;;;;16.42;9.80;;;21.50;90.90;;;;;;4973623;28;20082;-68
2022/09/08 10:25:12;;;;;;;17.40;12.05;;;21.60;90.70;;;;;;4975522;28;20117;-67
2022/09/08 10:28:03;;;;;;;15.45;10.68;;;21.60;91.10;;;;;;4965288;28;20034;-68
2022/09/08 10:31:05;;;;;;;15.50;12.10;;;21.60;91.50;;;;;;4960069;28;20062;-67
2022/09/08 10:33:42;;;;;;;20.65;14.05;;;21.70;91.70;;;;;;4974577;28;20026;-68
2022/09/08 10:36:09;;;;;;;20.17;14.05;;;21.70;92.10;;;;;;4992670;28;20050;-67
2022/09/08 10:38:45;;;;;;;14.82;12.10;;;21.80;92.20;;;;;;4974606;28;20034;-67
2022/09/08 10:41:46;;;;;;;16.15;10.85;;;21.80;92.20;;;;;;4972743;28;20087;-67
2022/09/08 10:44:38;;;;;;;14.68;11.13;;;21.80;91.70;;;;;;4943590;28;20043;-67
2022/09/08 10:47:37;;;;;;;12.30;8.93;;;21.90;91.60;;;;;;4961878;28;20030;-68
2022/09/08 10:50:15;;;;;;;16.10;8.90;;;21.80;91.30;;;;;;4993778;28;20030;-68
2022/09/08 10:53:08;;;;;;;12.00;7.97;;;21.80;91.00;;;;;;4994553;28;20034;-67
2022/09/08 10:55:53;;;;;;;12.55;9.52;;;21.80;90.90;;;;;;4997754;28;20034;-67
2022/09/08 10:58:35;;;;;;;16.08;8.68;;;21.80;90.60;;;;;;4976924;28;20377;-68
2022/09/08 11:01:36;;;;;;;14.38;9.05;;;21.80;90.80;;;;;;4987183;28;20110;-68
2022/09/08 11:04:45;;;;;;;11.32;7.88;;;21.80;90.90;;;;;;4987282;28;20054;-68
2022/09/08 11:07:29;;;;;;;11.13;7.07;;;21.90;90.80;;;;;;4989876;28;20050;-68
2022/09/08 11:10:16;;;;;;;10.80;7.63;;;21.80;90.60;;;;;;4986023;28;20129;-68
2022/09/08 11:13:01;;;;;;;10.82;7.25;;;21.90;90.80;;;;;;4989697;28;20362;-68
2022/09/08 11:16:04;;;;;;;14.18;7.82;;;21.80;90.60;;;;;;4984653;28;20621;-68
2022/09/08 11:18:50;;;;;;;12.80;7.45;;;21.80;90.50;;;;;;4992890;28;20065;-68
2022/09/08 11:21:25;;;;;;;10.40;7.28;;;21.80;90.40;;;;;;4984777;28;20477;-68
2022/09/08 11:23:54;;;;;;;8.82;6.45;;;21.80;90.40;;;;;;4977329;28;20055;-68
2022/09/08 11:26:23;;;;;;;13.07;6.97;;;21.80;90.40;;;;;;4976581;28;20516;-68
2022/09/08 11:29:14;;;;;;;8.25;6.45;;;21.80;90.50;;;;;;4976514;28;20018;-68
2022/09/08 11:31:56;;;;;;;8.60;6.57;;;21.80;90.80;;;;;;4982635;28;20053;-69
2022/09/08 11:34:37;;;;;;;8.40;5.75;;;21.80;90.50;;;;;;4983755;28;20074;-69
2022/09/08 11:37:28;;;;;;;7.88;6.03;;;21.80;90.30;;;;;;4980100;28;20026;-68
2022/09/08 11:40:08;;;;;;;8.00;5.90;;;21.80;90.40;;;;;;4977700;28;20019;-68
2022/09/08 11:43:05;;;;;;;8.45;6.43;;;21.80;90.60;;;;;;4979554;28;20040;-68
2022/09/08 11:45:55;;;;;;;7.20;4.10;;;21.80;91.00;;;;;;4970132;28;20042;-68
2022/09/08 11:48:20;;;;;;;5.18;3.47;;;21.80;90.80;;;;;;4980212;28;20031;-68
2022/09/08 11:51:08;;;;;;;5.40;3.25;;;21.90;91.00;;;;;;4991313;28;20556;-69
2022/09/08 11:53:52;;;;;;;5.97;3.28;;;21.90;90.60;;;;;;4966952;28;20039;-68
2022/09/08 11:56:38;;;;;;;5.10;3.13;;;21.90;90.70;;;;;;4975571;28;20034;-68
2022/09/08 11:59:34;;;;;;;6.25;3.33;;;21.90;90.80;;;;;;4987450;28;20390;-69
2022/09/08 12:02:06;;;;;;;4.70;3.38;;;21.90;90.80;;;;;;4975472;28;20383;-69
2022/09/08 12:04:59;;;;;;;5.45;3.42;;;21.90;90.70;;;;;;4974089;28;20035;-68
2022/09/08 12:07:32;;;;;;;7.80;4.15;;;21.90;90.60;;;;;;4987811;28;20050;-68
2022/09/08 12:10:28;;;;;;;3.63;2.55;;;21.90;90.70;;;;;;4986872;28;20062;-68
2022/09/08 12:13:17;;;;;;;6.65;2.20;;;21.90;90.70;;;;;;4984229;28;20030;-68
2022/09/08 12:16:18;;;;;;;4.97;2.35;;;21.90;90.30;;;;;;4990065;28;21491;-68
2022/09/08 12:19:12;;;;;;;4.03;1.95;;;21.90;90.30;;;;;;4990073;28;20037;-68
2022/09/08 12:22:08;;;;;;;4.35;1.90;;;21.90;90.10;;;;;;4991605;28;20105;-69
2022/09/08 12:25:11;;;;;;;3.40;1.50;;;21.80;90.00;;;;;;4990724;28;20038;-68
2022/09/08 12:28:05;;;;;;;5.60;1.40;;;21.80;89.40;;;;;;4986095;28;20429;-69
2022/09/08 12:30:50;;;;;;;2.97;1.45;;;21.70;89.30;;;;;;4982077;28;20031;-69
2022/09/08 12:33:37;;;;;;;3.10;1.20;;;21.70;89.30;;;;;;4981789;28;20113;-69
2022/09/08 12:36:40;;;;;;;2.35;1.17;;;21.70;89.40;;;;;;4968950;28;20031;-69
2022/09/08 12:39:24;;;;;;;1.90;1.30;;;21.60;89.20;;;;;;4974130;28;20022;-69
2022/09/08 12:42:12;;;;;;;1.40;1.20;;;21.60;89.70;;;;;;4972153;28;20114;-69
2022/09/08 12:45:04;;;;;;;2.75;1.08;;;21.60;89.60;;;;;;4983987;28;20066;-68
2022/09/08 12:48:05;;;;;;;1.30;1.20;;;21.50;89.50;;;;;;4978336;28;20058;-69
2022/09/08 12:50:49;;;;;;;2.00;1.20;;;21.50;89.60;;;;;;4993663;28;20478;-68
2022/09/08 12:53:43;;;;;;;1.80;1.25;;;21.50;90.00;;;;;;4963191;28;20039;-69
2022/09/08 12:56:25;;;;;;;2.47;1.30;;;21.50;90.00;;;;;;4974380;28;20475;-69
2022/09/08 12:59:40;;;;;;;2.20;1.30;;;21.50;90.10;;;;;;4973814;28;20486;-69
2022/09/08 13:02:44;;;;;;;5.18;1.13;;;21.50;90.10;;;;;;4907375;29;20063;-69
2022/09/08 13:05:12;;;;;;;;;;;21.50;90.00;;;;;;4985862;28;20076;-69
2022/09/08 13:08:15;;;;;;;1.90;1.20;;;21.50;89.40;;;;;;4987527;28;19964;-69
2022/09/08 13:10:44;;;;;;;3.60;1.35;;;21.50;90.00;;;;;;4982379;28;20023;-69
2022/09/08 13:13:31;;;;;;;2.15;1.02;;;21.50;89.80;;;;;;4990410;28;20096;-69
2022/09/08 13:16:26;;;;;;;3.50;1.50;;;21.50;89.80;;;;;;4979982;28;20077;-69
2022/09/08 13:19:28;;;;;;;3.20;1.27;;;21.50;89.70;;;;;;4978440;28;20045;-70
2022/09/08 13:22:12;;;;;;;3.25;1.40;;;21.50;90.00;;;;;;4968417;28;20038;-69
2022/09/08 13:24:37;;;;;;;;;;;21.40;90.20;;;;;;4990567;28;20038;-69
2022/09/08 13:27:19;;;;;;;1.25;0.95;;;21.40;89.70;;;;;;4992094;28;20328;-69